createdAt,value
2019-03-03T00:01:44.961Z,99245.22
2019-03-03T00:04:15.437Z,99247.19
2019-03-03T00:06:46.229Z,99255.83
2019-03-03T00:09:17.273Z,99248.36
2019-03-03T00:11:47.717Z,99250.22
2019-03-03T00:14:18.535Z,99241.58
2019-03-03T00:16:49.381Z,99242.23
2019-03-03T00:19:19.814Z,99242.75
2019-03-03T00:21:50.648Z,99236.08
2019-03-03T00:24:21.083Z,99234.92
2019-03-03T00:26:51.901Z,99235.44
2019-03-03T00:29:22.651Z,99236.94
2019-03-03T00:31:53.387Z,99228.61
2019-03-03T00:34:24.128Z,99229.30
2019-03-03T00:37:16.508Z,99224.13
2019-03-03T00:40:05.896Z,99233.77
2019-03-03T00:42:53.840Z,99231.61
2019-03-03T00:45:42.032Z,99233.30
2019-03-03T00:48:32.167Z,99236.13
2019-03-03T00:51:30.224Z,99252.13
2019-03-03T00:54:08.393Z,99241.97
2019-03-03T00:56:52.575Z,99243.61
2019-03-03T00:59:32.378Z,99236.95
2019-03-03T01:02:11.547Z,99238.28
2019-03-03T01:04:59.537Z,99244.95
2019-03-03T01:07:49.244Z,99244.78
2019-03-03T01:10:27.612Z,99259.30
2019-03-03T01:13:12.004Z,99254.45
2019-03-03T01:15:59.941Z,99257.80
2019-03-03T01:18:44.375Z,99256.13
2019-03-03T01:21:49.054Z,99259.13
2019-03-03T01:24:40.915Z,99250.14
2019-03-03T01:27:11.521Z,99251.78
2019-03-03T01:29:41.969Z,99252.13
2019-03-03T01:32:12.916Z,99247.95
2019-03-03T01:34:43.359Z,99252.30
2019-03-03T01:37:14.316Z,99245.97
2019-03-03T01:39:45.120Z,99242.62
2019-03-03T01:42:15.965Z,99234.14
2019-03-03T01:44:46.804Z,99230.28
2019-03-03T01:47:17.277Z,99219.96
2019-03-03T01:49:47.709Z,99225.13
2019-03-03T01:52:18.178Z,99218.14
2019-03-03T01:54:48.916Z,99213.98
2019-03-03T01:57:19.399Z,99210.29
2019-03-03T01:59:50.195Z,99214.46
2019-03-03T02:02:21.039Z,99210.63
2019-03-03T02:04:51.945Z,99211.13
2019-03-03T02:07:22.505Z,99210.65
2019-03-03T02:09:52.931Z,99202.96
2019-03-03T02:12:23.614Z,99206.65
2019-03-03T02:14:54.041Z,99201.14
2019-03-03T02:17:24.574Z,99196.63
2019-03-03T02:19:55.532Z,99186.13
2019-03-03T02:22:26.219Z,99186.30
2019-03-03T02:24:57.056Z,99177.11
2019-03-03T02:27:27.477Z,99177.64
2019-03-03T02:29:57.900Z,99169.11
2019-03-03T02:32:28.357Z,99173.13
2019-03-03T02:34:58.777Z,99167.29
2019-03-03T02:37:29.230Z,99154.27
2019-03-03T02:39:59.665Z,99154.59
2019-03-03T02:42:30.133Z,99149.44
2019-03-03T02:45:00.888Z,99143.27
2019-03-03T02:47:31.484Z,99144.45
2019-03-03T02:50:01.940Z,99140.45
2019-03-03T02:52:32.366Z,99129.23
2019-03-03T02:55:02.868Z,99121.77
2019-03-03T02:57:33.290Z,99108.27
2019-03-03T03:00:04.204Z,99112.77
2019-03-03T03:02:48.557Z,99104.91
2019-03-03T03:05:30.639Z,99104.44
2019-03-03T03:08:07.087Z,99098.09
2019-03-03T03:10:55.375Z,99099.73
2019-03-03T03:13:43.542Z,99090.07
2019-03-03T03:16:22.981Z,99083.42
2019-03-03T03:19:11.311Z,99093.40
2019-03-03T03:21:59.398Z,99080.22
2019-03-03T03:24:37.571Z,99091.92
2019-03-03T03:27:26.971Z,99080.58
2019-03-03T03:30:09.358Z,99084.28
2019-03-03T03:32:47.593Z,99074.61
2019-03-03T03:35:42.004Z,99073.60
2019-03-03T03:38:20.964Z,99063.61
2019-03-03T03:41:08.960Z,99055.63
2019-03-03T03:43:58.342Z,99049.94
2019-03-03T03:46:37.257Z,99049.10
2019-03-03T03:49:32.767Z,99049.94
2019-03-03T03:52:21.122Z,99047.09
2019-03-03T03:55:05.571Z,99041.91
2019-03-03T03:57:54.026Z,99041.92
2019-03-03T04:00:43.418Z,99029.03
2019-03-03T04:03:31.708Z,99040.19
2019-03-03T04:06:21.107Z,99022.25
2019-03-03T04:09:02.714Z,99026.23
2019-03-03T04:12:07.349Z,99017.70
2019-03-03T04:14:46.663Z,99014.88
2019-03-03T04:17:45.783Z,98995.16
2019-03-03T04:20:41.389Z,98990.01
2019-03-03T04:23:30.114Z,98980.95
2019-03-03T04:26:19.470Z,98967.97
2019-03-03T04:29:04.185Z,98984.49
2019-03-03T04:31:56.885Z,98979.36
2019-03-03T04:34:58.369Z,98986.64
2019-03-03T04:37:46.714Z,98975.97
2019-03-03T04:40:48.221Z,98990.03
2019-03-03T04:43:43.661Z,98990.84
2019-03-03T04:46:23.628Z,98975.53
2019-03-03T04:49:12.175Z,98969.33
2019-03-03T04:52:07.811Z,98976.84
2019-03-03T04:55:03.403Z,98962.66
2019-03-03T04:57:55.614Z,98962.19
2019-03-03T05:00:44.167Z,98961.04
2019-03-03T05:03:23.500Z,98953.55
2019-03-03T05:06:09.419Z,98962.68
2019-03-03T05:09:02.530Z,98955.86
2019-03-03T05:12:37.639Z,98962.91
2019-03-03T05:15:43.983Z,98969.93
2019-03-03T05:18:33.778Z,98974.95
2019-03-03T05:21:04.198Z,98968.12
2019-03-03T05:23:35.022Z,98974.44
2019-03-03T05:26:05.864Z,98981.61
2019-03-03T05:28:36.335Z,98971.80
2019-03-03T05:31:06.805Z,98966.28
2019-03-03T05:33:37.229Z,98959.98
2019-03-03T05:36:07.651Z,98952.01
2019-03-03T05:38:38.122Z,98954.83
2019-03-03T05:41:08.542Z,98951.69
2019-03-03T05:43:38.970Z,98952.48
2019-03-03T05:46:09.437Z,98957.18
2019-03-03T05:48:39.862Z,98953.84
2019-03-03T05:51:10.672Z,98959.01
2019-03-03T05:53:41.151Z,98952.34
2019-03-03T05:56:11.575Z,98950.33
2019-03-03T05:58:42.890Z,98954.34
2019-03-03T06:01:13.348Z,98955.33
2019-03-03T06:03:43.773Z,98943.48
2019-03-03T06:06:14.224Z,98948.28
2019-03-03T06:08:44.644Z,98944.80
2019-03-03T06:11:15.116Z,98947.41
2019-03-03T06:13:45.538Z,98941.31
2019-03-03T06:16:15.959Z,98948.30
2019-03-03T06:18:46.422Z,98936.92
2019-03-03T06:21:17.180Z,98936.41
2019-03-03T06:23:47.598Z,98942.44
2019-03-03T06:26:18.071Z,98936.80
2019-03-03T06:28:48.495Z,98923.98
2019-03-03T06:31:19.187Z,98923.59
2019-03-03T06:33:50.234Z,98920.55
2019-03-03T06:36:20.651Z,98923.16
2019-03-03T06:38:51.543Z,98916.36
2019-03-03T06:41:22.031Z,98909.52
2019-03-03T06:43:52.463Z,98915.20
2019-03-03T06:46:22.884Z,98911.38
2019-03-03T06:48:53.628Z,98910.66
2019-03-03T06:51:25.055Z,98902.97
2019-03-03T06:53:55.816Z,98905.60
2019-03-03T06:56:26.859Z,98904.33
2019-03-03T06:58:57.576Z,98908.17
2019-03-03T07:01:28.336Z,98909.52
2019-03-03T07:03:59.071Z,98916.48
2019-03-03T07:06:29.688Z,98910.04
2019-03-03T07:09:00.116Z,98908.92
2019-03-03T07:11:30.631Z,98911.26
2019-03-03T07:14:01.916Z,98906.73
2019-03-03T07:16:32.340Z,98911.86
2019-03-03T07:19:02.788Z,98914.05
2019-03-03T07:21:33.619Z,98921.46
2019-03-03T07:24:04.458Z,98914.59
2019-03-03T07:26:34.885Z,98903.55
2019-03-03T07:29:05.722Z,98898.73
2019-03-03T07:31:36.196Z,98898.44
2019-03-03T07:34:06.676Z,98899.17
2019-03-03T07:36:37.097Z,98898.84
2019-03-03T07:39:17.363Z,98891.83
2019-03-03T07:41:48.043Z,98895.28
2019-03-03T07:44:18.467Z,98893.80
2019-03-03T07:46:48.894Z,98893.65
2019-03-03T07:49:19.651Z,98883.13
2019-03-03T07:51:50.085Z,98884.45
2019-03-03T07:54:20.957Z,98886.91
2019-03-03T07:56:51.374Z,98902.59
2019-03-03T07:59:21.818Z,98906.38
2019-03-03T08:01:52.295Z,98909.16
2019-03-03T08:04:22.725Z,98902.81
2019-03-03T08:06:53.147Z,98908.97
2019-03-03T08:09:23.603Z,98913.97
2019-03-03T08:11:54.080Z,98905.73
2019-03-03T08:14:24.816Z,98910.64
2019-03-03T08:16:55.328Z,98926.50
2019-03-03T08:19:25.780Z,98932.10
2019-03-03T08:21:56.196Z,98935.88
2019-03-03T08:24:26.884Z,98926.39
2019-03-03T08:26:57.317Z,98932.70
2019-03-03T08:29:27.874Z,98927.80
2019-03-03T08:31:58.645Z,98926.64
2019-03-03T08:34:29.101Z,98925.31
2019-03-03T08:37:00.290Z,98922.11
2019-03-03T08:39:30.893Z,98918.41
2019-03-03T08:42:20.255Z,98926.23
2019-03-03T08:45:09.664Z,98922.59
2019-03-03T08:47:53.206Z,98908.91
2019-03-03T08:50:35.266Z,98915.68
2019-03-03T08:53:18.688Z,98921.36
2019-03-03T08:56:01.145Z,98922.74
2019-03-03T08:59:05.893Z,98909.62
2019-03-03T09:02:13.390Z,98925.72
2019-03-03T09:05:02.745Z,98918.78
2019-03-03T09:07:52.557Z,98922.64
2019-03-03T09:10:45.079Z,98919.98
2019-03-03T09:13:30.264Z,98923.09
2019-03-03T09:16:18.338Z,98927.17
2019-03-03T09:19:12.357Z,98922.69
2019-03-03T09:21:51.953Z,98926.02
2019-03-03T09:24:41.749Z,98934.66
2019-03-03T09:27:29.285Z,98929.95
2019-03-03T09:30:13.347Z,98933.33
2019-03-03T09:33:05.999Z,98929.13
2019-03-03T09:35:54.268Z,98936.63
2019-03-03T09:38:46.379Z,98942.59
2019-03-03T09:41:30.285Z,98941.64
2019-03-03T09:44:22.436Z,98943.30
2019-03-03T09:47:12.079Z,98950.50
2019-03-03T09:49:59.910Z,98949.49
2019-03-03T09:52:52.503Z,98957.13
2019-03-03T09:55:40.803Z,98960.51
2019-03-03T09:58:22.188Z,98956.17
2019-03-03T10:01:17.819Z,98969.00
2019-03-03T10:03:57.781Z,98969.52
2019-03-03T10:06:53.716Z,98957.84
2019-03-03T10:09:49.375Z,98964.88
2019-03-03T10:12:38.042Z,98959.17
2019-03-03T10:15:17.944Z,98957.36
2019-03-03T10:18:25.783Z,98962.36
2019-03-03T10:21:11.912Z,98970.82
2019-03-03T10:24:00.198Z,98971.82
2019-03-03T10:26:47.512Z,98971.08
2019-03-03T10:29:55.394Z,98958.44
2019-03-03T10:32:53.722Z,98961.77
2019-03-03T10:35:41.788Z,98971.75
2019-03-03T10:38:35.889Z,98966.48
2019-03-03T10:41:19.595Z,98956.47
2019-03-03T10:44:05.376Z,98963.18
2019-03-03T10:46:57.895Z,98957.84
2019-03-03T10:49:40.376Z,98952.65
2019-03-03T10:52:36.207Z,98950.68
2019-03-03T10:55:14.455Z,98951.50
2019-03-03T10:58:00.898Z,98945.62
2019-03-03T11:00:51.392Z,98939.07
2019-03-03T11:03:35.347Z,98944.59
2019-03-03T11:06:18.010Z,98926.72
2019-03-03T11:08:55.139Z,98940.63
2019-03-03T11:11:47.583Z,98937.10
2019-03-03T11:14:27.692Z,98931.58
2019-03-03T11:17:14.953Z,98932.58
2019-03-03T11:20:23.424Z,98936.77
2019-03-03T11:23:18.524Z,98926.23
2019-03-03T11:26:13.859Z,98931.61
2019-03-03T11:29:06.532Z,98929.09
2019-03-03T11:32:03.499Z,98926.24
2019-03-03T11:34:52.847Z,98927.73
2019-03-03T11:37:33.241Z,98924.39
2019-03-03T11:40:18.579Z,98922.94
2019-03-03T11:43:01.291Z,98921.42
2019-03-03T11:45:50.958Z,98924.39
2019-03-03T11:48:49.852Z,98916.59
2019-03-03T11:51:39.197Z,98907.97
2019-03-03T11:54:23.422Z,98909.86
2019-03-03T11:57:18.903Z,98903.55
2019-03-03T12:00:18.050Z,98903.00
2019-03-03T12:03:16.639Z,98897.21
2019-03-03T12:06:00.292Z,98902.63
2019-03-03T12:08:37.293Z,98893.20
2019-03-03T12:11:23.881Z,98901.22
2019-03-03T12:14:16.219Z,98887.53
2019-03-03T12:17:05.669Z,98893.84
2019-03-03T12:19:52.082Z,98890.20
2019-03-03T12:22:39.570Z,98900.29
2019-03-03T12:25:29.883Z,98890.76
2019-03-03T12:28:18.259Z,98897.80
2019-03-03T12:31:03.711Z,98894.46
2019-03-03T12:33:58.935Z,98888.71
2019-03-03T12:36:56.059Z,98868.50
2019-03-03T12:39:55.126Z,98871.88
2019-03-03T12:42:32.395Z,98875.13
2019-03-03T12:45:11.847Z,98866.13
2019-03-03T12:47:56.707Z,98859.45
2019-03-03T12:50:48.827Z,98857.11
2019-03-03T12:53:34.304Z,98856.10
2019-03-03T12:56:25.164Z,98845.70
2019-03-03T12:59:16.815Z,98843.99
2019-03-03T13:01:54.976Z,98839.80
2019-03-03T13:04:47.650Z,98832.84
2019-03-03T13:07:43.301Z,98840.17
2019-03-03T13:10:44.913Z,98832.59
2019-03-03T13:13:33.034Z,98826.06
2019-03-03T13:16:23.111Z,98826.19
2019-03-03T13:19:03.513Z,98829.58
2019-03-03T13:21:52.524Z,98828.91
2019-03-03T13:24:40.817Z,98823.56
2019-03-03T13:27:33.701Z,98827.62
2019-03-03T13:30:23.074Z,98823.61
2019-03-03T13:33:11.409Z,98822.63
2019-03-03T13:35:51.139Z,98827.97
2019-03-03T13:38:43.397Z,98822.27
2019-03-03T13:41:31.195Z,98822.71
2019-03-03T13:44:01.669Z,98824.56
2019-03-03T13:46:32.454Z,98822.95
2019-03-03T13:49:02.879Z,98820.56
2019-03-03T13:51:35.782Z,98804.78
2019-03-03T13:54:06.737Z,98794.98
2019-03-03T13:56:37.395Z,98794.15
2019-03-03T13:59:08.632Z,98788.56
2019-03-03T14:01:39.080Z,98781.77
2019-03-03T14:04:09.980Z,98788.70
2019-03-03T14:06:40.533Z,98790.30
2019-03-03T14:09:11.206Z,98778.88
2019-03-03T14:11:42.060Z,98780.48
2019-03-03T14:14:12.516Z,98778.61
2019-03-03T14:16:42.947Z,98774.87
2019-03-03T14:19:13.696Z,98764.97
2019-03-03T14:21:44.196Z,98775.22
2019-03-03T14:24:16.078Z,98764.39
2019-03-03T14:26:46.989Z,98760.97
2019-03-03T14:29:17.625Z,98759.37
2019-03-03T14:31:48.509Z,98758.70
2019-03-03T14:34:18.995Z,98752.71
2019-03-03T14:36:49.538Z,98754.77
2019-03-03T14:39:20.123Z,98750.23
2019-03-03T14:41:50.924Z,98752.15
2019-03-03T14:44:21.623Z,98748.54
2019-03-03T14:46:52.179Z,98741.73
2019-03-03T14:49:22.604Z,98748.08
2019-03-03T14:51:53.043Z,98737.78
2019-03-03T14:54:24.200Z,98734.07
2019-03-03T14:56:54.649Z,98724.42
2019-03-03T14:59:25.076Z,98723.70
2019-03-03T15:01:55.609Z,98722.17
2019-03-03T15:04:26.054Z,98716.69
2019-03-03T15:06:56.509Z,98720.54
2019-03-03T15:09:27.092Z,98722.89
2019-03-03T15:11:58.114Z,98713.20
2019-03-03T15:14:28.968Z,98717.77
2019-03-03T15:16:59.448Z,98710.06
2019-03-03T15:19:29.881Z,98721.02
2019-03-03T15:22:02.340Z,98714.95
2019-03-03T15:24:33.638Z,98719.22
2019-03-03T15:27:06.743Z,98714.41
2019-03-03T15:29:37.488Z,98712.74
2019-03-03T15:32:10.348Z,98714.47
2019-03-03T15:34:41.161Z,98706.37
2019-03-03T15:37:16.076Z,98710.81
2019-03-03T15:39:46.527Z,98706.13
2019-03-03T15:42:17.418Z,98700.52
2019-03-03T15:44:47.888Z,98698.28
2019-03-03T15:47:18.327Z,98700.24
2019-03-03T15:49:49.620Z,98701.45
2019-03-03T15:52:21.986Z,98701.22
2019-03-03T15:54:52.428Z,98700.90
2019-03-03T15:57:23.307Z,98691.88
2019-03-03T15:59:58.143Z,98692.75
2019-03-03T16:02:28.625Z,98680.40
2019-03-03T16:04:59.465Z,98680.23
2019-03-03T16:07:29.943Z,98683.14
2019-03-03T16:10:00.387Z,98679.78
2019-03-03T16:12:30.905Z,98676.20
2019-03-03T16:15:02.273Z,98681.30
2019-03-03T16:17:33.043Z,98676.02
2019-03-03T16:20:03.472Z,98671.00
2019-03-03T16:22:33.969Z,98669.34
2019-03-03T16:25:04.694Z,98661.86
2019-03-03T16:27:36.618Z,98665.06
2019-03-03T16:30:08.687Z,98656.46
2019-03-03T16:32:39.513Z,98664.66
2019-03-03T16:35:12.097Z,98650.25
2019-03-03T16:37:43.039Z,98648.84
2019-03-03T16:40:17.938Z,98647.01
2019-03-03T16:42:49.774Z,98647.55
2019-03-03T16:45:21.761Z,98646.77
2019-03-03T16:47:52.968Z,98646.55
2019-03-03T16:50:25.210Z,98646.14
2019-03-03T16:52:55.638Z,98648.34
2019-03-03T16:55:26.064Z,98646.16
2019-03-03T16:57:56.553Z,98641.69
2019-03-03T17:00:27.003Z,98638.66
2019-03-03T17:02:57.484Z,98632.55
2019-03-03T17:05:27.973Z,98634.07
2019-03-03T17:07:58.504Z,98629.45
2019-03-03T17:10:29.957Z,98626.52
2019-03-03T17:13:00.493Z,98617.91
2019-03-03T17:15:30.984Z,98613.43
2019-03-03T17:18:02.891Z,98617.53
2019-03-03T17:20:35.832Z,98609.09
2019-03-03T17:23:06.277Z,98604.17
2019-03-03T17:25:37.189Z,98600.89
2019-03-03T17:28:08.036Z,98606.56
2019-03-03T17:30:38.613Z,98604.48
2019-03-03T17:33:10.508Z,98605.42
2019-03-03T17:35:41.336Z,98599.55
2019-03-03T17:38:12.075Z,98598.87
2019-03-03T17:40:42.513Z,98606.44
2019-03-03T17:43:13.014Z,98597.41
2019-03-03T17:45:43.786Z,98595.26
2019-03-03T17:48:14.283Z,98599.49
2019-03-03T17:50:44.757Z,98604.14
2019-03-03T17:53:15.181Z,98589.75
2019-03-03T17:55:45.944Z,98587.14
2019-03-03T17:58:19.816Z,98587.11
2019-03-03T18:00:50.647Z,98582.78
2019-03-03T18:03:21.102Z,98584.45
2019-03-03T18:05:51.604Z,98575.26
2019-03-03T18:08:22.057Z,98566.89
2019-03-03T18:10:52.506Z,98567.18
2019-03-03T18:13:23.013Z,98565.23
2019-03-03T18:15:53.478Z,98561.48
2019-03-03T18:18:23.913Z,98556.95
2019-03-03T18:20:54.709Z,98551.55
2019-03-03T18:23:25.516Z,98549.84
2019-03-03T18:25:58.529Z,98549.39
2019-03-03T18:28:28.968Z,98547.17
2019-03-03T18:30:59.411Z,98537.36
2019-03-03T18:33:29.883Z,98535.80
2019-03-03T18:36:01.230Z,98535.02
2019-03-03T18:38:32.674Z,98521.87
2019-03-03T18:41:03.168Z,98524.13
2019-03-03T18:43:33.629Z,98511.91
2019-03-03T18:46:05.820Z,98516.73
2019-03-03T18:48:37.603Z,98507.25
2019-03-03T18:51:16.475Z,98512.20
2019-03-03T18:53:47.848Z,98500.17
2019-03-03T18:56:19.344Z,98503.22
2019-03-03T18:58:50.190Z,98499.97
2019-03-03T19:01:20.666Z,98502.23
2019-03-03T19:03:51.200Z,98497.88
2019-03-03T19:06:21.961Z,98496.09
2019-03-03T19:08:52.521Z,98499.56
2019-03-03T19:11:22.955Z,98488.80
2019-03-03T19:13:55.576Z,98481.39
2019-03-03T19:16:26.282Z,98494.88
2019-03-03T19:18:57.408Z,98491.07
2019-03-03T19:21:28.135Z,98481.39
2019-03-03T19:23:58.889Z,98486.05
2019-03-03T19:26:30.072Z,98476.98
2019-03-03T19:29:00.616Z,98465.88
2019-03-03T19:31:31.704Z,98473.90
2019-03-03T19:34:02.129Z,98469.62
2019-03-03T19:36:33.059Z,98458.53
2019-03-03T19:39:04.114Z,98466.05
2019-03-03T19:41:34.968Z,98459.25
2019-03-03T19:44:05.660Z,98452.13
2019-03-03T19:46:36.634Z,98444.75
2019-03-03T19:49:07.071Z,98433.91
2019-03-03T19:51:41.258Z,98441.72
2019-03-03T19:54:12.020Z,98430.67
2019-03-03T19:56:42.763Z,98427.88
2019-03-03T19:59:13.423Z,98421.64
2019-03-03T20:01:43.838Z,98425.41
2019-03-03T20:04:14.293Z,98422.33
2019-03-03T20:06:47.013Z,98413.38
2019-03-03T20:09:17.852Z,98410.63
2019-03-03T20:11:48.610Z,98409.33
2019-03-03T20:14:19.093Z,98402.48
2019-03-03T20:16:49.527Z,98403.45
2019-03-03T20:19:20.240Z,98403.57
2019-03-03T20:21:50.818Z,98402.28
2019-03-03T20:24:21.254Z,98397.06
2019-03-03T20:26:51.979Z,98387.09
2019-03-03T20:29:23.462Z,98381.14
2019-03-03T20:31:53.894Z,98381.98
2019-03-03T20:34:24.768Z,98379.92
2019-03-03T20:36:57.661Z,98373.01
2019-03-03T20:39:28.097Z,98366.85
2019-03-03T20:41:58.595Z,98361.39
2019-03-03T20:44:29.117Z,98354.80
2019-03-03T20:46:59.548Z,98346.98
2019-03-03T20:49:30.776Z,98342.25
2019-03-03T20:52:01.350Z,98342.41
2019-03-03T20:54:32.652Z,98344.88
2019-03-03T20:57:03.791Z,98330.59
2019-03-03T20:59:34.770Z,98331.41
2019-03-03T21:02:05.596Z,98332.16
2019-03-03T21:04:36.216Z,98330.83
2019-03-03T21:07:07.005Z,98337.59
2019-03-03T21:09:37.569Z,98332.09
2019-03-03T21:12:08.339Z,98334.97
2019-03-03T21:14:38.834Z,98349.02
2019-03-03T21:17:09.279Z,98342.98
2019-03-03T21:19:39.774Z,98318.60
2019-03-03T21:22:10.269Z,98327.02
2019-03-03T21:24:40.712Z,98329.19
2019-03-03T21:27:11.186Z,98314.06
2019-03-03T21:29:41.682Z,98326.84
2019-03-03T21:32:12.106Z,98301.26
2019-03-03T21:34:42.568Z,98305.45
2019-03-03T21:37:14.607Z,98299.58
2019-03-03T21:39:47.980Z,98296.70
2019-03-03T21:42:18.789Z,98292.70
2019-03-03T21:44:49.814Z,98293.02
2019-03-03T21:47:20.701Z,98286.95
2019-03-03T21:49:51.224Z,98292.47
2019-03-03T21:52:21.664Z,98291.45
2019-03-03T21:54:52.639Z,98287.55
2019-03-03T21:57:23.221Z,98288.72
2019-03-03T21:59:53.670Z,98275.01
2019-03-03T22:02:24.186Z,98272.25
2019-03-03T22:04:54.666Z,98275.67
2019-03-03T22:07:25.098Z,98269.29
2019-03-03T22:09:55.553Z,98269.20
2019-03-03T22:12:26.061Z,98274.52
2019-03-03T22:14:56.798Z,98264.27
2019-03-03T22:17:27.243Z,98267.98
2019-03-03T22:19:57.711Z,98266.33
2019-03-03T22:22:28.145Z,98259.80
2019-03-03T22:24:58.972Z,98254.06
2019-03-03T22:27:30.029Z,98249.28
2019-03-03T22:30:01.060Z,98237.03
2019-03-03T22:32:31.849Z,98246.81
2019-03-03T22:35:02.512Z,98253.03
2019-03-03T22:37:33.237Z,98258.25
2019-03-03T22:40:04.099Z,98248.70
2019-03-03T22:42:36.087Z,98248.01
2019-03-03T22:45:08.038Z,98237.00
2019-03-03T22:47:40.282Z,98238.22
2019-03-03T22:50:12.280Z,98233.98
2019-03-03T22:52:42.760Z,98243.36
2019-03-03T22:55:13.963Z,98230.99
2019-03-03T22:57:44.406Z,98221.73
2019-03-03T23:00:27.109Z,98219.23
2019-03-03T23:02:57.536Z,98211.17
2019-03-03T23:05:39.928Z,98209.19
2019-03-03T23:08:22.680Z,98206.03
2019-03-03T23:11:40.355Z,98201.41
2019-03-03T23:14:36.168Z,98209.42
2019-03-03T23:17:53.376Z,98199.41
2019-03-03T23:20:44.774Z,98200.72
2019-03-03T23:23:55.004Z,98198.77
2019-03-03T23:26:25.744Z,98187.91
2019-03-03T23:28:56.169Z,98198.59
2019-03-03T23:31:27.015Z,98209.97
2019-03-03T23:33:57.438Z,98192.30
2019-03-03T23:36:27.863Z,98187.59
2019-03-03T23:38:58.317Z,98172.97
2019-03-03T23:41:28.758Z,98154.72
2019-03-03T23:43:59.286Z,98154.83
2019-03-03T23:46:29.713Z,98138.66
2019-03-03T23:49:00.140Z,98136.17
2019-03-03T23:51:31.580Z,98130.77
2019-03-03T23:54:02.277Z,98122.06
2019-03-03T23:56:32.705Z,98113.73
2019-03-03T23:59:03.159Z,98111.69
